Time;durP1;ratioP1;P1;durP2;ratioP2;P2;SDS_P1;SDS_P2;PMS_P1;PMS_P2;Temp;Humidity;BMP_temperature;BMP_pressure;BME280_temperature;BME280_humidity;BME280_pressure;Samples;Min_cycle;Max_cycle;Signal;HPM_P1;HPM_P2
2023/08/15 00:00:29;;;;;;;4.72;3.08;;;22.30;99.90;;;;;;6181097;23;20017;-82
2023/08/15 00:02:57;;;;;;;5.00;3.92;;;22.00;99.90;;;;;;6133361;23;20017;-82
2023/08/15 00:05:24;;;;;;;6.88;3.67;;;22.30;99.90;;;;;;6159311;23;20036;-81
2023/08/15 00:08:00;;;;;;;5.72;3.63;;;22.20;99.90;;;;;;6137815;23;20449;-82
2023/08/15 00:10:27;;;;;;;6.53;3.92;;;22.20;99.90;;;;;;6133747;23;20451;-82
2023/08/15 00:12:54;;;;;;;4.68;3.63;;;22.20;99.90;;;;;;6132913;23;20099;-82
2023/08/15 00:15:21;;;;;;;8.50;3.63;;;22.20;99.90;;;;;;6158473;23;20024;-81
2023/08/15 00:17:48;;;;;;;5.10;3.60;;;22.20;99.90;;;;;;6134242;23;20017;-81
2023/08/15 00:20:15;;;;;;;5.97;3.90;;;22.10;99.90;;;;;;6135577;23;20056;-81
2023/08/15 00:22:42;;;;;;;4.50;3.67;;;22.10;99.90;;;;;;6157548;23;20357;-81
2023/08/15 00:25:10;;;;;;;7.75;3.50;;;22.10;99.90;;;;;;6133457;23;20095;-81
2023/08/15 00:27:37;;;;;;;4.97;3.50;;;22.10;99.90;;;;;;6157478;23;20103;-80
2023/08/15 00:30:05;;;;;;;8.00;4.10;;;22.00;99.90;;;;;;6157886;23;20805;-81
2023/08/15 00:32:35;;;;;;;4.25;3.85;;;22.00;99.90;;;;;;6132670;23;20080;-81
2023/08/15 00:35:06;;;;;;;7.20;4.40;;;22.00;99.90;;;;;;6171132;23;20103;-81
2023/08/15 00:37:33;;;;;;;5.78;3.58;;;22.00;99.90;;;;;;6180910;23;20590;-81
2023/08/15 00:40:01;;;;;;;6.18;3.85;;;22.00;99.90;;;;;;6164138;23;20024;-81
2023/08/15 00:42:29;;;;;;;9.00;4.00;;;22.00;99.90;;;;;;6187633;23;20083;-81
2023/08/15 00:44:57;;;;;;;7.55;4.20;;;21.90;99.90;;;;;;6162479;23;20028;-81
2023/08/15 00:47:25;;;;;;;6.78;4.18;;;21.90;99.90;;;;;;6163678;23;20028;-81
2023/08/15 00:49:54;;;;;;;5.40;4.05;;;21.90;99.90;;;;;;6164974;23;20025;-81
2023/08/15 00:52:21;;;;;;;8.38;4.10;;;21.90;99.90;;;;;;6163017;23;20415;-81
2023/08/15 00:54:50;;;;;;;5.63;4.50;;;21.90;99.90;;;;;;6163348;23;20027;-81
2023/08/15 00:57:18;;;;;;;6.88;4.00;;;21.90;99.90;;;;;;6163633;23;20001;-81
2023/08/15 00:59:47;;;;;;;6.20;4.03;;;21.90;99.90;;;;;;6163110;23;20723;-81
2023/08/15 01:02:14;;;;;;;8.20;4.10;;;21.90;99.90;;;;;;6187466;23;20083;-81
2023/08/15 01:04:43;;;;;;;7.90;4.18;;;21.80;99.90;;;;;;6163424;23;20363;-81
2023/08/15 01:07:10;;;;;;;5.75;3.60;;;22.00;99.90;;;;;;6163461;23;20028;-81
2023/08/15 01:09:38;;;;;;;5.13;4.10;;;21.80;99.90;;;;;;6162930;23;20440;-81
2023/08/15 01:12:30;;;;;;;4.60;4.07;;;21.60;99.90;;;;;;6161959;23;20047;-81
2023/08/15 01:15:08;;;;;;;6.68;4.18;;;21.70;99.90;;;;;;6187528;23;20031;-81
2023/08/15 01:17:44;;;;;;;4.70;3.70;;;21.70;99.90;;;;;;6162304;23;20025;-81
2023/08/15 01:20:19;;;;;;;4.93;4.05;;;21.70;99.90;;;;;;6188052;23;20080;-81
2023/08/15 01:22:50;;;;;;;5.25;3.92;;;21.70;99.90;;;;;;6163876;23;20017;-81
2023/08/15 01:25:17;;;;;;;7.50;4.38;;;21.70;99.90;;;;;;6188049;23;20479;-81
2023/08/15 01:27:45;;;;;;;9.07;4.18;;;21.70;99.90;;;;;;6188510;23;20030;-81
2023/08/15 01:30:14;;;;;;;5.70;4.07;;;21.70;99.90;;;;;;6187178;23;20472;-81
2023/08/15 01:32:50;;;;;;;8.50;4.93;;;21.70;99.90;;;;;;6161411;23;20021;-80
2023/08/15 01:35:22;;;;;;;4.88;4.20;;;21.60;99.90;;;;;;6161950;23;20103;-81
2023/08/15 01:37:58;;;;;;;7.00;4.10;;;21.60;99.90;;;;;;6203118;23;20467;-81
2023/08/15 01:40:28;;;;;;;5.13;4.05;;;21.40;99.90;;;;;;6216901;23;20329;-81
2023/08/15 01:42:59;;;;;;;4.22;3.65;;;21.60;99.90;;;;;;6192057;23;20180;-81
2023/08/15 01:45:28;;;;;;;4.75;3.78;;;21.50;99.90;;;;;;6216386;23;20028;-81
2023/08/15 01:47:55;;;;;;;6.32;4.03;;;21.50;99.90;;;;;;6167744;23;20020;-81
2023/08/15 01:50:23;;;;;;;5.25;3.70;;;21.50;99.90;;;;;;6216762;23;20028;-81
2023/08/15 01:52:50;;;;;;;4.85;4.20;;;21.50;99.90;;;;;;6192795;23;20098;-81
2023/08/15 01:55:21;;;;;;;7.70;4.40;;;21.50;99.90;;;;;;6218447;23;20444;-81
2023/08/15 01:57:48;;;;;;;4.80;3.65;;;21.50;99.90;;;;;;6216476;23;20475;-81
2023/08/15 02:00:15;;;;;;;5.57;4.35;;;21.50;99.90;;;;;;6192292;23;20359;-81
2023/08/15 02:02:43;;;;;;;5.53;4.15;;;21.40;99.90;;;;;;6218605;23;20066;-81
2023/08/15 02:05:13;;;;;;;7.25;3.85;;;21.40;99.90;;;;;;6217355;23;20341;-81
2023/08/15 02:07:40;;;;;;;5.72;3.92;;;21.30;99.90;;;;;;6217327;23;20028;-81
2023/08/15 02:10:08;;;;;;;5.07;4.28;;;21.30;99.90;;;;;;6216960;23;20020;-81
2023/08/15 02:12:35;;;;;;;6.18;4.28;;;21.30;99.90;;;;;;6191663;22;20032;-81
2023/08/15 02:15:04;;;;;;;7.60;4.50;;;21.30;99.90;;;;;;6216881;23;20119;-81
2023/08/15 02:17:34;;;;;;;7.15;4.35;;;21.30;99.90;;;;;;6218245;23;20020;-81
2023/08/15 02:20:02;;;;;;;5.45;4.30;;;21.30;99.90;;;;;;6191882;23;20020;-81
2023/08/15 02:22:31;;;;;;;7.68;4.60;;;21.30;99.90;;;;;;6192432;23;20384;-81
2023/08/15 02:24:58;;;;;;;4.68;4.10;;;21.20;99.90;;;;;;6192157;23;20778;-81
2023/08/15 02:27:26;;;;;;;6.30;4.38;;;21.20;99.90;;;;;;6217048;23;20020;-81
2023/08/15 02:29:53;;;;;;;4.55;4.05;;;21.20;99.90;;;;;;6242189;23;20110;-81
2023/08/15 02:32:20;;;;;;;6.13;4.00;;;21.20;99.90;;;;;;6192351;23;20026;-81
2023/08/15 02:34:48;;;;;;;7.43;4.28;;;21.10;99.90;;;;;;6191708;23;20020;-81
2023/08/15 02:37:15;;;;;;;5.15;4.65;;;21.10;99.90;;;;;;6216959;23;20028;-81
2023/08/15 02:39:43;;;;;;;7.88;4.80;;;21.10;99.90;;;;;;6216667;23;20044;-81
2023/08/15 02:42:10;;;;;;;6.15;4.32;;;21.10;99.90;;;;;;6192083;23;20102;-80
2023/08/15 02:44:37;;;;;;;6.57;4.47;;;21.10;99.90;;;;;;6191050;23;20020;-80
2023/08/15 02:47:05;;;;;;;7.40;4.53;;;21.00;99.90;;;;;;6216711;23;20099;-80
2023/08/15 02:49:33;;;;;;;6.20;4.25;;;21.00;99.90;;;;;;6216235;23;20024;-80
2023/08/15 02:52:00;;;;;;;7.60;4.38;;;21.00;99.90;;;;;;6217276;23;20462;-80
2023/08/15 02:54:28;;;;;;;5.57;4.28;;;21.00;99.90;;;;;;6217676;23;20685;-80
2023/08/15 02:56:55;;;;;;;7.93;4.20;;;21.00;99.90;;;;;;6192243;23;20364;-80
2023/08/15 02:59:22;;;;;;;8.23;4.80;;;21.00;99.90;;;;;;6216460;23;20111;-80
2023/08/15 03:01:49;;;;;;;6.82;4.30;;;21.00;99.90;;;;;;6216518;23;20440;-80
2023/08/15 03:04:17;;;;;;;6.18;4.75;;;20.90;99.90;;;;;;6216901;23;20455;-80
2023/08/15 03:06:44;;;;;;;8.82;4.80;;;20.90;99.90;;;;;;6191829;23;20027;-80
2023/08/15 03:09:14;;;;;;;5.93;4.95;;;20.90;99.90;;;;;;6218174;23;20028;-80
2023/08/15 03:11:41;;;;;;;6.32;4.70;;;20.80;99.90;;;;;;6193970;23;20070;-80
2023/08/15 03:14:09;;;;;;;10.05;4.60;;;20.80;99.90;;;;;;6193108;23;20683;-80
2023/08/15 03:16:36;;;;;;;5.47;4.32;;;20.80;99.90;;;;;;6218735;23;20091;-81
2023/08/15 03:19:04;;;;;;;6.28;5.10;;;20.80;99.90;;;;;;6194449;23;20016;-81
2023/08/15 03:21:31;;;;;;;10.38;4.28;;;20.70;99.90;;;;;;6220584;23;20017;-81
2023/08/15 03:23:59;;;;;;;6.10;4.88;;;20.80;99.90;;;;;;6194236;23;20477;-81
2023/08/15 03:26:28;;;;;;;7.45;4.55;;;20.70;99.90;;;;;;6194721;23;20106;-81
2023/08/15 03:28:56;;;;;;;6.20;4.40;;;20.80;99.90;;;;;;6217894;23;20038;-81
2023/08/15 03:31:24;;;;;;;8.07;4.97;;;20.80;99.90;;;;;;6193389;23;20023;-81
2023/08/15 03:33:55;;;;;;;9.95;4.80;;;20.90;99.90;;;;;;6195240;23;20135;-81
2023/08/15 03:36:23;;;;;;;7.25;5.13;;;20.70;99.90;;;;;;6219264;23;20098;-80
2023/08/15 03:38:52;;;;;;;5.90;5.00;;;20.70;99.90;;;;;;6219168;23;20084;-80
2023/08/15 03:41:21;;;;;;;6.60;4.55;;;21.40;99.90;;;;;;6193343;23;20051;-80
2023/08/15 03:43:48;;;;;;;6.78;4.75;;;20.80;99.90;;;;;;6218851;23;20022;-80
2023/08/15 03:46:16;;;;;;;8.57;5.22;;;20.70;99.90;;;;;;6192578;23;20016;-80
2023/08/15 03:48:43;;;;;;;7.20;5.20;;;20.70;99.90;;;;;;6219239;23;20513;-80
2023/08/15 03:51:11;;;;;;;6.80;5.07;;;20.50;99.90;;;;;;6193537;23;20054;-80
2023/08/15 03:53:49;;;;;;;9.18;5.55;;;20.80;99.90;;;;;;6197090;23;20031;-80
2023/08/15 03:56:16;;;;;;;6.72;5.65;;;20.70;99.90;;;;;;6218507;23;20031;-80
2023/08/15 03:58:44;;;;;;;8.52;5.65;;;20.70;99.90;;;;;;6218999;23;20406;-80
2023/08/15 04:01:12;;;;;;;9.10;5.35;;;20.70;99.90;;;;;;6193905;23;20074;-80
2023/08/15 04:03:40;;;;;;;8.57;5.95;;;20.80;99.90;;;;;;6221066;23;20016;-80
2023/08/15 04:06:07;;;;;;;9.50;5.40;;;20.80;99.90;;;;;;6194501;23;20026;-81
2023/08/15 04:08:35;;;;;;;6.32;4.75;;;20.60;99.90;;;;;;6194015;23;20054;-81
2023/08/15 04:11:02;;;;;;;8.13;5.13;;;20.80;99.90;;;;;;6194673;23;20667;-81
2023/08/15 04:13:29;;;;;;;7.30;5.07;;;20.80;99.90;;;;;;6222939;23;20058;-81
2023/08/15 04:15:57;;;;;;;8.20;5.55;;;20.80;99.90;;;;;;6218498;23;20020;-81
2023/08/15 04:18:25;;;;;;;9.27;5.82;;;21.10;99.90;;;;;;6193024;23;20020;-81
2023/08/15 04:20:52;;;;;;;8.07;5.85;;;20.80;99.90;;;;;;6217927;23;20016;-81
2023/08/15 04:23:20;;;;;;;6.40;5.30;;;20.90;99.90;;;;;;6193126;23;20103;-81
2023/08/15 04:25:49;;;;;;;8.98;5.13;;;20.90;99.90;;;;;;6193178;23;20020;-81
2023/08/15 04:28:17;;;;;;;6.43;4.65;;;20.90;99.90;;;;;;6218658;23;20027;-81
2023/08/15 04:30:44;;;;;;;7.75;5.00;;;20.80;99.90;;;;;;6193690;23;20077;-81
2023/08/15 04:33:12;;;;;;;7.32;4.63;;;21.00;99.90;;;;;;6192924;23;20020;-81
2023/08/15 04:35:41;;;;;;;6.50;4.93;;;21.40;99.90;;;;;;6216746;23;20027;-81
2023/08/15 04:38:10;;;;;;;6.53;4.88;;;21.00;99.90;;;;;;6218353;23;20024;-81
2023/08/15 04:40:40;;;;;;;6.75;4.65;;;21.10;99.90;;;;;;6193048;23;20043;-81
2023/08/15 04:43:10;;;;;;;6.93;4.75;;;20.30;99.90;;;;;;6218786;23;20012;-81
2023/08/15 04:45:40;;;;;;;7.30;4.50;;;21.00;99.90;;;;;;6181188;23;20111;-81
2023/08/15 04:48:12;;;;;;;8.65;4.70;;;21.10;99.90;;;;;;6194732;23;20046;-81
2023/08/15 04:50:40;;;;;;;10.52;5.13;;;21.10;99.90;;;;;;6217412;23;20024;-81
2023/08/15 04:53:07;;;;;;;8.43;5.03;;;21.20;99.90;;;;;;6218373;23;20020;-81
2023/08/15 04:55:34;;;;;;;9.25;4.95;;;21.10;99.90;;;;;;6218518;23;20729;-81
2023/08/15 04:58:02;;;;;;;8.20;4.90;;;21.20;99.90;;;;;;6219561;23;20027;-81
2023/08/15 05:00:29;;;;;;;6.05;4.90;;;21.20;99.90;;;;;;6218832;23;20035;-81
2023/08/15 05:03:01;;;;;;;8.63;6.07;;;21.30;99.90;;;;;;6218065;23;20027;-81
2023/08/15 05:05:28;;;;;;;7.15;4.53;;;21.50;99.90;;;;;;6218056;23;20074;-81
2023/08/15 05:07:56;;;;;;;7.93;5.97;;;20.80;99.90;;;;;;6192595;23;20050;-81
2023/08/15 05:10:23;;;;;;;6.97;5.45;;;21.40;99.90;;;;;;6192194;23;20407;-81
2023/08/15 05:12:50;;;;;;;7.97;5.05;;;21.40;99.90;;;;;;6216056;23;20347;-81
2023/08/15 05:15:18;;;;;;;8.75;5.10;;;21.40;99.90;;;;;;6215768;23;20055;-80
2023/08/15 05:17:48;;;;;;;9.55;5.30;;;21.50;99.90;;;;;;6215918;23;20030;-79
2023/08/15 05:20:16;;;;;;;6.53;4.90;;;21.50;99.90;;;;;;6217369;23;20337;-80
2023/08/15 05:22:44;;;;;;;8.13;5.00;;;21.50;99.90;;;;;;6217393;23;20027;-80
2023/08/15 05:25:11;;;;;;;6.80;5.30;;;21.60;99.90;;;;;;6217382;23;20031;-80
2023/08/15 05:27:44;;;;;;;6.95;5.00;;;21.60;99.90;;;;;;6217223;23;20016;-80
2023/08/15 05:30:11;;;;;;;8.20;4.85;;;21.70;99.90;;;;;;6192526;23;20124;-80
2023/08/15 05:32:38;;;;;;;7.70;4.55;;;21.80;99.90;;;;;;6217896;23;20020;-80
2023/08/15 05:35:06;;;;;;;5.65;4.57;;;21.90;99.90;;;;;;6216599;23;20020;-80
2023/08/15 05:37:33;;;;;;;7.95;5.20;;;22.10;99.90;;;;;;6216057;23;20144;-80
2023/08/15 05:40:01;;;;;;;8.85;5.00;;;22.20;99.90;;;;;;6191673;23;20024;-80
2023/08/15 05:42:31;;;;;;;6.65;4.43;;;22.30;99.90;;;;;;6216711;23;20016;-81
2023/08/15 05:44:58;;;;;;;7.07;4.80;;;22.30;99.90;;;;;;6190621;23;20074;-80
2023/08/15 05:47:25;;;;;;;8.20;4.72;;;22.40;99.90;;;;;;6215430;23;20024;-80
2023/08/15 05:49:52;;;;;;;6.45;4.75;;;22.50;99.90;;;;;;6182157;23;20051;-80
2023/08/15 05:52:19;;;;;;;5.35;4.65;;;22.50;99.90;;;;;;6181073;23;20113;-80
2023/08/15 05:54:46;;;;;;;7.45;4.78;;;22.60;99.90;;;;;;6206156;23;20121;-80
2023/08/15 05:57:15;;;;;;;8.30;4.68;;;22.70;99.90;;;;;;6206527;23;20027;-82
2023/08/15 05:59:42;;;;;;;7.55;4.95;;;22.80;99.90;;;;;;6182902;23;20142;-81
2023/08/15 06:02:09;;;;;;;6.13;4.70;;;22.90;99.90;;;;;;6205645;23;20044;-81
2023/08/15 06:04:36;;;;;;;5.00;3.88;;;23.00;99.90;;;;;;6206968;23;20103;-81
2023/08/15 06:07:04;;;;;;;5.20;4.05;;;23.20;99.90;;;;;;6183566;23;20020;-81
2023/08/15 06:09:31;;;;;;;5.85;3.90;;;23.30;99.90;;;;;;6205829;23;20031;-79
2023/08/15 06:11:58;;;;;;;6.07;3.83;;;23.40;99.90;;;;;;6209573;23;20478;-82
2023/08/15 06:14:25;;;;;;;4.30;3.83;;;23.50;99.90;;;;;;6232766;23;20776;-78
2023/08/15 06:16:52;;;;;;;3.85;3.15;;;23.70;99.90;;;;;;6234618;23;20577;-80
2023/08/15 06:19:19;;;;;;;4.60;4.05;;;23.80;99.80;;;;;;6210994;23;20020;-79
2023/08/15 06:21:46;;;;;;;3.53;3.20;;;24.00;99.80;;;;;;6237314;23;20024;-81
2023/08/15 06:24:14;;;;;;;3.72;3.10;;;24.10;98.80;;;;;;6185382;23;20132;-81
2023/08/15 06:26:41;;;;;;;5.65;3.22;;;24.10;98.20;;;;;;6212939;23;20061;-79
2023/08/15 06:29:08;;;;;;;6.90;3.40;;;24.30;98.00;;;;;;6207258;23;20499;-79
2023/08/15 06:31:35;;;;;;;5.68;2.85;;;24.40;97.50;;;;;;6209997;23;20031;-80
2023/08/15 06:34:03;;;;;;;5.40;3.88;;;24.50;98.20;;;;;;6183843;23;20020;-81
2023/08/15 06:36:31;;;;;;;5.70;3.55;;;24.60;97.80;;;;;;6183079;23;20020;-80
2023/08/15 06:38:58;;;;;;;5.43;3.15;;;24.70;97.80;;;;;;6210464;23;20444;-80
2023/08/15 06:41:25;;;;;;;4.93;3.28;;;24.90;97.70;;;;;;6210014;23;20017;-81
2023/08/15 06:43:54;;;;;;;3.53;3.10;;;25.00;97.10;;;;;;6210016;23;20016;-80
2023/08/15 06:46:22;;;;;;;4.13;3.60;;;25.00;96.10;;;;;;6213989;23;20030;-80
2023/08/15 06:48:49;;;;;;;5.53;3.25;;;25.10;96.70;;;;;;6214174;23;20518;-79
2023/08/15 06:51:16;;;;;;;4.57;3.30;;;25.20;96.40;;;;;;6214070;23;20032;-81
2023/08/15 06:53:46;;;;;;;5.10;3.92;;;25.20;96.00;;;;;;6186274;23;20050;-80
2023/08/15 06:56:13;;;;;;;5.18;3.05;;;25.30;96.60;;;;;;6210651;23;20024;-79
2023/08/15 06:58:40;;;;;;;5.13;3.30;;;25.40;95.60;;;;;;6187052;23;20398;-80
2023/08/15 07:01:08;;;;;;;7.25;3.45;;;25.50;95.10;;;;;;6186347;23;20058;-80
2023/08/15 07:03:35;;;;;;;3.70;2.88;;;25.60;95.30;;;;;;6184384;23;20566;-78
2023/08/15 07:06:04;;;;;;;5.90;3.20;;;25.60;93.90;;;;;;6187538;23;20026;-78
2023/08/15 07:08:31;;;;;;;4.00;3.20;;;25.60;93.80;;;;;;6214453;23;20031;-80
2023/08/15 07:10:59;;;;;;;6.22;3.40;;;25.70;93.60;;;;;;6187897;23;20032;-81
2023/08/15 07:13:29;;;;;;;4.43;2.78;;;25.80;93.50;;;;;;6215259;23;20082;-80
2023/08/15 07:15:56;;;;;;;5.80;3.30;;;26.00;93.40;;;;;;6186918;23;20028;-80
2023/08/15 07:18:24;;;;;;;3.53;3.08;;;26.00;92.80;;;;;;6238579;23;20042;-79
2023/08/15 07:20:51;;;;;;;5.70;3.03;;;26.10;92.80;;;;;;6239881;23;20062;-79
2023/08/15 07:23:22;;;;;;;5.25;3.38;;;26.10;92.50;;;;;;6211423;23;20353;-81
2023/08/15 07:25:49;;;;;;;4.63;2.85;;;26.20;93.00;;;;;;6210427;23;20026;-79
2023/08/15 07:28:16;;;;;;;5.22;3.50;;;26.40;92.70;;;;;;6210622;23;20020;-80
2023/08/15 07:30:45;;;;;;;5.47;3.38;;;26.40;91.80;;;;;;6186454;23;20115;-81
2023/08/15 07:33:13;;;;;;;5.68;3.28;;;26.40;91.60;;;;;;6186106;23;20357;-79
2023/08/15 07:35:42;;;;;;;4.05;3.10;;;26.50;91.80;;;;;;6239636;23;20551;-80
2023/08/15 07:38:09;;;;;;;5.05;3.00;;;26.50;91.70;;;;;;6192812;23;20017;-80
2023/08/15 07:40:36;;;;;;;4.55;3.22;;;26.50;91.30;;;;;;6154723;23;20040;-80
2023/08/15 07:43:03;;;;;;;5.15;3.15;;;26.60;91.40;;;;;;6155661;23;20070;-79
2023/08/15 07:45:31;;;;;;;6.20;3.00;;;26.70;91.20;;;;;;6180588;23;20021;-80
2023/08/15 07:47:58;;;;;;;4.85;3.20;;;26.70;91.20;;;;;;6182401;23;20027;-80
2023/08/15 07:50:28;;;;;;;6.80;3.60;;;26.80;92.00;;;;;;6181549;23;20354;-80
2023/08/15 07:52:59;;;;;;;7.50;3.95;;;26.90;91.00;;;;;;6155188;23;20512;-80
2023/08/15 07:55:27;;;;;;;4.72;3.22;;;26.90;90.60;;;;;;6154819;23;20028;-80
2023/08/15 07:57:58;;;;;;;3.53;3.15;;;27.00;91.10;;;;;;6155285;23;20025;-80
2023/08/15 08:00:25;;;;;;;6.78;3.30;;;27.00;91.10;;;;;;6155588;23;20024;-79
2023/08/15 08:02:52;;;;;;;5.75;3.25;;;27.00;90.90;;;;;;6180787;23;20354;-81
2023/08/15 08:05:20;;;;;;;5.05;3.42;;;27.10;91.10;;;;;;6183592;23;20028;-80
2023/08/15 08:07:49;;;;;;;3.80;3.38;;;27.10;90.60;;;;;;6184134;23;20028;-81
2023/08/15 08:10:17;;;;;;;6.05;3.38;;;27.30;90.80;;;;;;6182006;23;20139;-79
2023/08/15 08:12:45;;;;;;;6.18;3.60;;;27.40;90.80;;;;;;6157712;23;20039;-79
2023/08/15 08:15:13;;;;;;;4.97;3.85;;;27.30;90.50;;;;;;6180732;23;20047;-80
2023/08/15 08:17:41;;;;;;;7.40;4.40;;;27.40;91.00;;;;;;6157462;23;20020;-80
2023/08/15 08:20:17;;;;;;;5.50;3.47;;;27.50;91.50;;;;;;6155819;23;20027;-81
2023/08/15 08:22:44;;;;;;;4.85;3.20;;;27.50;90.70;;;;;;6179826;23;20396;-80
2023/08/15 08:25:19;;;;;;;5.70;3.78;;;27.50;90.80;;;;;;6182858;23;20028;-80
2023/08/15 08:27:46;;;;;;;5.25;3.15;;;27.50;90.20;;;;;;6181444;23;20068;-80
2023/08/15 08:30:16;;;;;;;5.88;3.70;;;27.60;90.60;;;;;;6154000;23;20527;-81
2023/08/15 08:32:44;;;;;;;5.18;3.35;;;27.80;90.40;;;;;;6155329;23;20020;-79
2023/08/15 08:35:15;;;;;;;5.15;2.92;;;27.90;90.10;;;;;;6153676;23;20477;-79
2023/08/15 08:37:47;;;;;;;4.85;2.75;;;27.90;87.40;;;;;;6161971;23;20071;-81
2023/08/15 08:40:16;;;;;;;4.60;2.92;;;27.90;86.80;;;;;;6204215;23;20020;-79
2023/08/15 08:42:44;;;;;;;3.22;2.90;;;27.90;88.10;;;;;;6204364;23;20131;-81
2023/08/15 08:45:12;;;;;;;3.60;2.40;;;28.10;87.10;;;;;;6180479;23;20766;-79
2023/08/15 08:47:40;;;;;;;2.65;2.45;;;28.00;83.90;;;;;;6181092;23;20033;-80
2023/08/15 08:50:11;;;;;;;5.68;2.67;;;28.10;84.80;;;;;;6204648;23;20024;-79
2023/08/15 08:52:48;;;;;;;5.75;2.90;;;28.30;84.80;;;;;;6182009;23;20044;-80
2023/08/15 08:55:20;;;;;;;3.80;3.08;;;28.20;84.60;;;;;;6179666;23;20048;-80
2023/08/15 08:57:53;;;;;;;6.18;3.20;;;28.30;84.90;;;;;;6180014;23;20024;-81
2023/08/15 09:00:31;;;;;;;3.08;2.78;;;28.20;86.20;;;;;;6178264;23;20360;-81
2023/08/15 09:02:58;;;;;;;4.75;3.15;;;28.30;86.10;;;;;;6178342;23;20031;-81
2023/08/15 09:05:27;;;;;;;2.92;2.40;;;28.40;83.90;;;;;;6202999;23;20016;-83
2023/08/15 09:07:55;;;;;;;7.65;2.80;;;28.40;82.00;;;;;;6203573;23;20102;-82
2023/08/15 09:10:23;;;;;;;3.70;2.63;;;28.40;81.10;;;;;;6205081;23;20104;-79
2023/08/15 09:12:50;;;;;;;4.65;2.50;;;28.40;80.60;;;;;;6204705;23;20531;-81
2023/08/15 09:15:17;;;;;;;3.15;2.55;;;28.40;80.10;;;;;;6177850;23;20071;-80
2023/08/15 09:17:44;;;;;;;5.47;2.97;;;28.40;80.70;;;;;;6179539;23;20044;-80
2023/08/15 09:20:16;;;;;;;3.05;2.45;;;28.60;80.80;;;;;;6176845;23;20031;-81
2023/08/15 09:22:45;;;;;;;2.97;2.50;;;28.50;79.40;;;;;;6203588;23;20027;-79
2023/08/15 09:25:20;;;;;;;5.18;3.03;;;28.60;81.40;;;;;;6205077;23;20459;-79
2023/08/15 09:27:47;;;;;;;4.10;2.42;;;28.70;80.10;;;;;;6204610;23;20059;-81
2023/08/15 09:30:16;;;;;;;3.92;2.63;;;28.80;80.10;;;;;;6201569;23;20028;-78
2023/08/15 09:32:45;;;;;;;2.55;2.22;;;28.70;79.60;;;;;;6205073;23;20035;-79
2023/08/15 09:35:14;;;;;;;6.45;2.90;;;28.80;79.70;;;;;;6201536;23;20055;-81
2023/08/15 09:37:45;;;;;;;5.57;3.10;;;28.80;78.60;;;;;;6207732;23;20027;-79
2023/08/15 09:40:23;;;;;;;4.03;2.15;;;28.80;77.50;;;;;;6207723;23;20086;-79
2023/08/15 09:42:54;;;;;;;4.10;2.80;;;28.80;79.00;;;;;;6207527;23;20016;-79
2023/08/15 09:45:21;;;;;;;4.07;2.40;;;28.80;78.60;;;;;;6211985;23;20501;-80
2023/08/15 09:47:49;;;;;;;5.10;2.80;;;29.00;77.80;;;;;;6186224;23;20028;-80
2023/08/15 09:50:16;;;;;;;3.22;2.42;;;29.00;79.20;;;;;;6185647;23;20028;-80
2023/08/15 09:52:45;;;;;;;2.65;2.40;;;28.90;79.20;;;;;;6183295;23;20060;-79
2023/08/15 09:55:18;;;;;;;4.47;3.20;;;29.00;79.60;;;;;;6234245;23;20024;-80
2023/08/15 09:57:46;;;;;;;5.15;2.47;;;28.90;78.10;;;;;;6207663;23;20030;-80
2023/08/15 10:00:16;;;;;;;5.07;2.25;;;29.00;79.20;;;;;;6209006;23;20030;-77
2023/08/15 10:03:14;;;;;;;3.20;2.22;;;29.10;78.40;;;;;;6211296;23;20077;-79
2023/08/15 10:05:46;;;;;;;4.15;2.50;;;29.10;75.10;;;;;;6156402;23;20031;-79
2023/08/15 10:08:15;;;;;;;5.65;2.45;;;29.10;77.30;;;;;;6210167;23;20027;-78
2023/08/15 10:10:43;;;;;;;2.85;2.00;;;29.20;78.00;;;;;;6208046;23;20634;-79
2023/08/15 10:13:11;;;;;;;4.72;2.15;;;29.20;77.70;;;;;;6212278;23;20031;-79
2023/08/15 10:15:38;;;;;;;3.38;2.38;;;29.20;76.60;;;;;;6234166;23;20026;-79
2023/08/15 10:18:06;;;;;;;3.47;2.45;;;29.10;75.50;;;;;;6237764;23;20020;-79
2023/08/15 10:20:37;;;;;;;2.97;2.40;;;29.20;76.40;;;;;;6208712;23;20013;-80
2023/08/15 10:23:08;;;;;;;3.67;2.40;;;29.10;76.10;;;;;;6209494;23;20089;-80
2023/08/15 10:25:40;;;;;;;4.35;2.50;;;29.10;77.00;;;;;;6210601;23;20099;-80
2023/08/15 10:28:09;;;;;;;3.67;2.70;;;29.20;78.80;;;;;;6210171;23;20351;-78
2023/08/15 10:30:41;;;;;;;11.88;3.28;;;29.20;77.60;;;;;;6235056;23;20086;-80
2023/08/15 10:33:22;;;;;;;4.95;2.72;;;29.10;76.70;;;;;;6212420;23;20070;-79
2023/08/15 10:35:55;;;;;;;6.80;3.00;;;29.10;76.20;;;;;;6212168;23;20399;-80
2023/08/15 10:38:26;;;;;;;3.83;2.40;;;29.10;78.40;;;;;;6210068;23;20020;-80
2023/08/15 10:41:04;;;;;;;5.20;3.20;;;29.10;79.70;;;;;;6211317;23;20021;-78
2023/08/15 10:43:33;;;;;;;3.78;2.83;;;29.20;77.10;;;;;;6211070;23;20107;-79
2023/08/15 10:46:04;;;;;;;5.78;2.70;;;29.30;77.30;;;;;;6207099;23;20016;-80
2023/08/15 10:48:50;;;;;;;4.37;2.47;;;29.40;76.10;;;;;;6233210;23;20067;-80
2023/08/15 10:51:32;;;;;;;4.90;2.30;;;29.40;75.60;;;;;;6209558;23;20395;-79
2023/08/15 10:54:02;;;;;;;5.05;2.72;;;29.40;74.70;;;;;;6212677;23;20121;-79
2023/08/15 10:56:35;;;;;;;3.80;2.38;;;29.40;74.50;;;;;;6209880;23;20514;-79
2023/08/15 10:59:09;;;;;;;3.67;2.20;;;29.30;74.30;;;;;;6159826;23;20439;-79
2023/08/15 11:01:37;;;;;;;4.05;2.72;;;29.30;73.70;;;;;;6209519;23;20012;-80
2023/08/15 11:04:10;;;;;;;6.32;2.70;;;29.40;74.30;;;;;;6234530;23;20127;-80
2023/08/15 11:06:41;;;;;;;3.67;2.42;;;29.30;74.40;;;;;;6208381;23;20020;-79
2023/08/15 11:09:10;;;;;;;2.88;2.47;;;29.30;73.00;;;;;;6231554;23;20012;-81
2023/08/15 11:11:39;;;;;;;2.90;2.70;;;29.30;72.60;;;;;;6214737;23;20016;-81
2023/08/15 11:14:17;;;;;;;3.65;2.50;;;29.20;72.00;;;;;;6204274;23;20039;-80
2023/08/15 11:16:46;;;;;;;3.63;2.42;;;29.30;74.10;;;;;;6182854;23;20028;-78
2023/08/15 11:19:18;;;;;;;3.65;2.47;;;29.50;73.70;;;;;;6215949;23;20016;-80
2023/08/15 11:21:46;;;;;;;;;;;29.50;73.20;;;;;;6217370;23;20026;-79
2023/08/15 11:24:14;;;;;;;3.92;2.80;;;29.50;74.30;;;;;;6243414;23;19915;-77
2023/08/15 11:26:41;;;;;;;4.50;2.65;;;29.50;72.30;;;;;;6216761;23;20710;-80
2023/08/15 11:29:10;;;;;;;3.25;2.80;;;29.50;73.90;;;;;;6216835;23;20024;-80
2023/08/15 11:31:38;;;;;;;3.55;2.58;;;29.50;71.80;;;;;;6239012;23;20506;-80
2023/08/15 11:34:06;;;;;;;3.75;2.67;;;29.40;74.20;;;;;;6192517;23;20058;-80
2023/08/15 11:36:33;;;;;;;4.75;2.42;;;29.40;73.60;;;;;;6188025;23;20059;-79
2023/08/15 11:39:01;;;;;;;6.65;2.95;;;29.30;72.70;;;;;;6208406;23;20098;-79
2023/08/15 11:41:29;;;;;;;3.70;2.25;;;29.50;72.20;;;;;;6218586;23;20023;-79
2023/08/15 11:44:00;;;;;;;3.55;2.63;;;29.50;71.80;;;;;;6218238;23;20024;-79
2023/08/15 11:46:27;;;;;;;2.60;2.35;;;29.50;72.30;;;;;;6215447;23;20044;-79
2023/08/15 11:49:17;;;;;;;2.85;2.50;;;29.70;71.10;;;;;;6218711;23;20027;-79
2023/08/15 11:51:44;;;;;;;3.53;2.53;;;29.70;73.10;;;;;;6217537;23;20024;-79
2023/08/15 11:54:12;;;;;;;3.88;2.63;;;29.70;70.50;;;;;;6191639;23;20028;-78
2023/08/15 11:56:53;;;;;;;4.03;2.90;;;29.70;71.70;;;;;;6209647;23;20043;-78
2023/08/15 11:59:22;;;;;;;4.30;2.80;;;29.60;71.70;;;;;;6208569;23;20097;-79
2023/08/15 12:01:49;;;;;;;3.70;2.35;;;29.40;71.00;;;;;;6182217;23;20280;-79
2023/08/15 12:04:17;;;;;;;4.80;2.80;;;29.30;73.10;;;;;;6212101;23;20280;-79
2023/08/15 12:06:44;;;;;;;3.55;2.45;;;29.40;72.60;;;;;;6207732;23;20416;-78
2023/08/15 12:09:12;;;;;;;3.15;2.45;;;29.50;72.90;;;;;;6208051;23;20143;-79
2023/08/15 12:11:40;;;;;;;3.60;2.42;;;29.70;72.40;;;;;;6210978;23;20486;-78
2023/08/15 12:14:20;;;;;;;3.75;2.63;;;29.80;74.30;;;;;;6207003;23;20020;-79
2023/08/15 12:16:48;;;;;;;2.60;2.40;;;30.00;73.90;;;;;;6208930;23;20062;-78
2023/08/15 12:19:16;;;;;;;4.88;2.95;;;30.00;73.30;;;;;;6208398;23;20040;-79
2023/08/15 12:21:49;;;;;;;4.90;3.20;;;30.00;72.30;;;;;;6184672;23;20527;-79
2023/08/15 12:24:16;;;;;;;4.80;2.60;;;30.00;70.70;;;;;;6181935;23;20031;-80
2023/08/15 12:26:44;;;;;;;3.72;2.60;;;29.90;70.70;;;;;;6207985;23;20346;-79
2023/08/15 12:29:11;;;;;;;3.42;2.42;;;29.80;71.20;;;;;;6183474;23;20510;-80
2023/08/15 12:31:40;;;;;;;3.20;2.75;;;29.90;72.50;;;;;;6183400;23;20031;-79
2023/08/15 12:34:07;;;;;;;4.35;2.45;;;29.90;72.20;;;;;;6181866;23;20085;-78
2023/08/15 12:36:34;;;;;;;5.53;2.47;;;29.80;73.30;;;;;;6208837;23;20047;-78
2023/08/15 12:39:03;;;;;;;3.85;2.78;;;29.70;72.50;;;;;;6185719;23;20066;-79
2023/08/15 12:41:30;;;;;;;3.03;2.65;;;29.90;70.50;;;;;;6232298;23;20024;-79
2023/08/15 12:43:58;;;;;;;2.92;2.60;;;29.80;71.20;;;;;;6206253;23;20839;-79
2023/08/15 12:46:25;;;;;;;3.08;2.53;;;29.70;71.90;;;;;;6208403;23;20055;-80
2023/08/15 12:48:52;;;;;;;3.20;2.83;;;29.60;72.20;;;;;;6236164;23;20196;-79
2023/08/15 12:51:20;;;;;;;3.58;2.53;;;29.50;73.10;;;;;;6209753;23;20032;-79
2023/08/15 12:53:47;;;;;;;4.75;2.83;;;29.50;72.90;;;;;;6183478;23;20498;-80
2023/08/15 12:56:14;;;;;;;3.85;2.60;;;29.50;72.80;;;;;;6235665;23;20819;-79